Time;durP1;ratioP1;P1;durP2;ratioP2;P2;SDS_P1;SDS_P2;PMS_P1;PMS_P2;Temp;Humidity;BMP_temperature;BMP_pressure;BME280_temperature;BME280_humidity;BME280_pressure;Samples;Min_cycle;Max_cycle;Signal;HPM_P1;HPM_P2
2023/01/28 00:00:56;;;;;;;5.90;3.70;;;2.20;99.90;;;;;;5035368;28;20395;-67
2023/01/28 00:03:21;;;;;;;4.40;4.00;;;2.20;99.90;;;;;;5041131;28;20655;-67
2023/01/28 00:05:47;;;;;;;4.07;3.50;;;2.20;99.90;;;;;;5054120;28;20687;-68
2023/01/28 00:08:13;;;;;;;4.00;3.70;;;2.20;99.90;;;;;;5049223;28;20174;-67
2023/01/28 00:10:41;;;;;;;4.70;3.57;;;2.10;97.70;;;;;;5039737;28;20249;-67
2023/01/28 00:13:08;;;;;;;4.30;4.00;;;2.20;98.00;;;;;;5036705;28;20426;-73
2023/01/28 00:15:34;;;;;;;3.97;3.70;;;2.10;97.50;;;;;;5033998;28;20462;-67
2023/01/28 00:18:00;;;;;;;4.77;4.37;;;2.10;97.90;;;;;;5050559;28;20974;-72
2023/01/28 00:20:25;;;;;;;3.93;3.63;;;2.10;95.20;;;;;;5054835;28;20643;-69
2023/01/28 00:22:51;;;;;;;4.93;4.43;;;2.10;97.00;;;;;;5038987;28;20183;-73
2023/01/28 00:25:18;;;;;;;4.40;4.03;;;2.00;96.20;;;;;;5033814;28;20191;-72
2023/01/28 00:27:44;;;;;;;5.23;3.80;;;2.00;94.60;;;;;;5041174;28;20644;-69
2023/01/28 00:30:10;;;;;;;3.70;2.80;;;2.00;95.60;;;;;;5054127;28;20488;-67
2023/01/28 00:32:36;;;;;;;4.07;3.67;;;2.10;93.50;;;;;;5039678;28;20592;-66
2023/01/28 00:35:01;;;;;;;7.30;3.27;;;2.10;95.90;;;;;;5032545;28;20458;-67
2023/01/28 00:37:27;;;;;;;4.67;4.27;;;2.10;93.00;;;;;;5046347;28;20544;-67
2023/01/28 00:39:53;;;;;;;3.33;2.80;;;2.10;91.10;;;;;;5054370;28;20178;-72
2023/01/28 00:42:18;;;;;;;10.33;3.67;;;2.00;90.40;;;;;;5043677;28;20206;-72
2023/01/28 00:44:44;;;;;;;3.30;3.10;;;2.00;90.40;;;;;;5038858;28;20206;-67
2023/01/28 00:47:09;;;;;;;3.60;3.40;;;1.90;93.90;;;;;;5045296;28;20176;-72
2023/01/28 00:49:35;;;;;;;3.00;2.80;;;2.00;93.40;;;;;;5034349;28;20174;-67
2023/01/28 00:52:01;;;;;;;3.70;3.50;;;2.00;92.50;;;;;;5040804;28;20694;-72
2023/01/28 00:54:27;;;;;;;3.30;3.10;;;2.00;90.70;;;;;;5053144;28;20194;-72
2023/01/28 00:56:53;;;;;;;4.23;4.00;;;2.00;89.30;;;;;;5054376;28;20475;-67
2023/01/28 00:59:19;;;;;;;4.30;4.00;;;2.10;89.40;;;;;;5052748;28;20570;-72
2023/01/28 01:01:44;;;;;;;4.00;3.70;;;2.10;89.40;;;;;;5050891;28;20177;-68
2023/01/28 01:04:10;;;;;;;4.20;3.90;;;2.10;89.40;;;;;;5053629;28;20397;-67
2023/01/28 01:06:38;;;;;;;4.43;4.03;;;2.00;89.30;;;;;;5051743;28;20665;-67
2023/01/28 01:09:06;;;;;;;4.10;3.80;;;2.00;89.30;;;;;;5034080;28;20202;-72
2023/01/28 01:11:33;;;;;;;4.53;4.17;;;2.00;80.30;;;;;;5033682;28;20953;-68
2023/01/28 01:13:59;;;;;;;4.90;4.27;;;2.00;77.10;;;;;;5053598;28;20412;-67
2023/01/28 01:16:28;;;;;;;7.33;3.77;;;2.00;71.70;;;;;;5052731;28;20425;-67
2023/01/28 01:18:55;;;;;;;4.27;3.97;;;2.00;64.70;;;;;;5041311;28;20416;-72
2023/01/28 01:21:24;;;;;;;3.33;3.03;;;1.90;61.50;;;;;;5052433;28;20393;-66
2023/01/28 01:23:51;;;;;;;3.50;3.30;;;1.90;65.60;;;;;;5035649;28;20467;-67
2023/01/28 01:26:17;;;;;;;3.80;3.60;;;1.90;67.60;;;;;;5032763;28;20509;-67
2023/01/28 01:28:43;;;;;;;3.73;3.43;;;1.90;68.00;;;;;;5035862;28;20410;-67
2023/01/28 01:31:14;;;;;;;3.40;3.20;;;1.90;60.60;;;;;;5033580;28;20386;-71
2023/01/28 01:33:41;;;;;;;3.93;3.63;;;1.80;57.20;;;;;;5033569;28;20753;-72
2023/01/28 01:36:08;;;;;;;3.67;3.37;;;1.70;48.00;;;;;;5041020;28;20464;-67
2023/01/28 01:38:35;;;;;;;3.50;3.30;;;1.60;48.10;;;;;;5035581;28;20895;-72
2023/01/28 01:41:02;;;;;;;4.07;3.87;;;1.30;35.10;;;;;;5033544;28;20429;-69
2023/01/28 01:43:52;;;;;;;3.77;3.57;;;1.30;32.40;;;;;;5036440;28;20420;-73
2023/01/28 01:46:30;;;;;;;4.05;3.75;;;1.20;31.40;;;;;;5032698;28;20572;-67
2023/01/28 01:48:59;;;;;;;4.28;3.70;;;1.10;28.80;;;;;;5033233;28;20179;-67
2023/01/28 01:51:29;;;;;;;3.50;3.30;;;1.00;31.60;;;;;;5034800;28;20262;-69
2023/01/28 01:53:57;;;;;;;3.80;3.50;;;1.00;29.80;;;;;;5037382;28;20883;-71
2023/01/28 01:56:29;;;;;;;2.95;2.85;;;0.90;30.10;;;;;;5033012;28;20815;-72
2023/01/28 01:58:56;;;;;;;4.13;3.92;;;0.80;31.50;;;;;;5053174;28;20167;-67
2023/01/28 02:01:26;;;;;;;3.72;3.42;;;0.70;37.10;;;;;;5052488;28;20292;-71
2023/01/28 02:04:03;;;;;;;3.83;3.53;;;0.70;42.90;;;;;;5031812;28;20171;-72
2023/01/28 02:06:30;;;;;;;7.90;3.87;;;0.60;44.40;;;;;;5031101;28;20567;-72
2023/01/28 02:08:56;;;;;;;4.82;4.25;;;0.60;44.90;;;;;;5044320;28;20484;-66
2023/01/28 02:11:26;;;;;;;4.18;3.33;;;0.50;45.30;;;;;;5051843;28;20182;-67
2023/01/28 02:13:54;;;;;;;7.22;4.10;;;0.50;48.20;;;;;;5052873;28;20163;-72
2023/01/28 02:16:21;;;;;;;4.82;4.40;;;0.50;47.90;;;;;;5032918;28;20207;-66
2023/01/28 02:18:47;;;;;;;5.30;3.78;;;0.40;49.70;;;;;;5032928;28;20639;-67
2023/01/28 02:21:37;;;;;;;3.50;3.30;;;0.40;52.30;;;;;;5049792;28;20279;-67
2023/01/28 02:24:34;;;;;;;6.32;4.43;;;0.40;56.20;;;;;;5052147;28;20195;-66
2023/01/28 02:27:00;;;;;;;3.97;3.67;;;0.40;59.80;;;;;;5033528;28;20238;-72
2023/01/28 02:29:44;;;;;;;3.50;3.20;;;0.30;60.30;;;;;;5033823;28;20210;-67
2023/01/28 02:32:30;;;;;;;3.80;3.50;;;0.30;62.70;;;;;;5032818;28;20171;-67
2023/01/28 02:35:12;;;;;;;3.53;3.33;;;0.30;62.80;;;;;;5036791;28;20297;-72
2023/01/28 02:37:57;;;;;;;5.25;4.15;;;0.30;66.50;;;;;;5052738;28;20182;-72
2023/01/28 02:40:33;;;;;;;7.20;5.10;;;0.20;66.90;;;;;;5040297;28;20697;-67
2023/01/28 02:42:59;;;;;;;5.80;5.30;;;0.20;68.40;;;;;;5031443;28;20178;-72
2023/01/28 02:48:21;;;;;;;4.45;4.05;;;0.10;71.50;;;;;;5052722;28;20186;-72
2023/01/28 02:51:02;;;;;;;4.57;4.18;;;0.10;71.60;;;;;;5038283;28;20180;-72
2023/01/28 02:53:39;;;;;;;5.10;3.85;;;0.10;72.60;;;;;;5032799;28;20199;-72
2023/01/28 02:56:28;;;;;;;3.85;3.55;;;0.10;80.10;;;;;;5035252;28;20245;-67
2023/01/28 02:59:29;;;;;;;3.95;3.67;;;0.00;82.30;;;;;;5037423;28;20170;-67
2023/01/28 03:01:57;;;;;;;3.75;3.55;;;0.00;83.00;;;;;;5041215;28;20184;-72
2023/01/28 03:04:33;;;;;;;4.47;4.28;;;0.00;81.50;;;;;;5039670;28;20197;-68
2023/01/28 03:07:04;;;;;;;20.70;12.60;;;0.00;87.60;;;;;;5056438;28;20186;-67
2023/01/28 03:09:31;;;;;;;9.93;6.25;;;-0.10;87.70;;;;;;5054637;28;20532;-66
2023/01/28 03:38:19;;;;;;;5.50;4.85;;;-0.20;87.80;;;;;;5045413;28;20199;-73
2023/01/28 03:41:03;;;;;;;5.30;4.80;;;-0.20;87.60;;;;;;5035602;28;20160;-72
2023/01/28 03:43:30;;;;;;;4.65;4.25;;;-0.30;87.60;;;;;;5047313;28;20583;-73
2023/01/28 03:45:56;;;;;;;7.32;4.82;;;-0.30;87.70;;;;;;5043519;28;20672;-72
2023/01/28 03:48:24;;;;;;;5.37;4.97;;;-0.30;87.60;;;;;;5035550;28;20178;-66
2023/01/28 03:50:50;;;;;;;13.45;4.05;;;-0.30;87.70;;;;;;5044316;28;20422;-67
2023/01/28 03:53:17;;;;;;;4.97;4.15;;;-0.30;87.50;;;;;;5036896;28;20514;-66
2023/01/28 03:55:44;;;;;;;5.30;4.85;;;-0.30;87.50;;;;;;5042120;28;20343;-67
2023/01/28 03:58:11;;;;;;;5.15;4.50;;;-0.30;87.70;;;;;;5055407;28;20171;-72
2023/01/28 04:00:40;;;;;;;5.25;4.85;;;-0.30;87.60;;;;;;5048503;28;20556;-67
2023/01/28 04:03:14;;;;;;;4.50;4.20;;;-0.30;87.60;;;;;;5040332;28;20554;-66
2023/01/28 04:05:57;;;;;;;5.35;4.85;;;-0.30;87.50;;;;;;5047032;28;20565;-73
2023/01/28 04:08:23;;;;;;;4.80;4.40;;;-0.30;87.60;;;;;;5037742;28;20201;-66
2023/01/28 04:10:49;;;;;;;6.55;4.60;;;-0.30;87.60;;;;;;5039698;28;20178;-73
2023/01/28 04:13:15;;;;;;;6.53;4.90;;;-0.30;87.60;;;;;;5035028;28;20263;-66
2023/01/28 04:15:42;;;;;;;5.50;4.35;;;-0.30;87.50;;;;;;5046881;28;20206;-66
2023/01/28 04:18:08;;;;;;;4.38;4.07;;;-0.30;87.60;;;;;;5054956;28;20176;-66
2023/01/28 04:20:34;;;;;;;4.88;4.20;;;-0.30;87.50;;;;;;5042966;28;20187;-66
2023/01/28 04:23:00;;;;;;;5.50;5.10;;;-0.30;87.60;;;;;;5034895;28;20172;-65
2023/01/28 04:25:25;;;;;;;4.90;4.20;;;-0.30;88.90;;;;;;5037690;28;20450;-73
2023/01/28 04:27:51;;;;;;;6.03;4.10;;;-0.40;90.30;;;;;;5053298;28;20248;-66
2023/01/28 04:30:17;;;;;;;4.40;4.00;;;-0.40;87.50;;;;;;5046281;28;20179;-66
2023/01/28 04:32:46;;;;;;;6.90;4.57;;;-0.40;87.70;;;;;;5034783;28;20182;-66
2023/01/28 04:35:12;;;;;;;5.15;4.85;;;-0.40;93.50;;;;;;5040008;28;20638;-72
2023/01/28 04:37:40;;;;;;;4.60;4.30;;;-0.40;87.70;;;;;;5054641;28;20255;-72
2023/01/28 04:40:06;;;;;;;7.75;4.70;;;-0.50;91.70;;;;;;5048630;28;20440;-73
2023/01/28 04:42:32;;;;;;;4.68;4.38;;;-0.50;90.10;;;;;;5038143;28;20261;-65
2023/01/28 04:44:57;;;;;;;6.30;5.37;;;-0.60;91.70;;;;;;5049124;28;20295;-66
2023/01/28 04:47:23;;;;;;;4.93;4.63;;;-0.60;89.50;;;;;;5034391;28;20214;-72
2023/01/28 04:49:49;;;;;;;4.60;4.20;;;-0.60;89.60;;;;;;5036241;28;20254;-66
2023/01/28 04:52:15;;;;;;;5.40;5.00;;;-0.60;87.30;;;;;;5054417;28;20246;-66
2023/01/28 04:54:41;;;;;;;6.47;4.73;;;-0.60;87.30;;;;;;5052430;28;20281;-66
2023/01/28 04:57:07;;;;;;;6.00;5.60;;;-0.70;90.10;;;;;;5034173;28;20198;-72
2023/01/28 04:59:32;;;;;;;5.23;4.73;;;-0.70;92.50;;;;;;5035116;28;20179;-72
2023/01/28 05:01:58;;;;;;;5.93;5.20;;;-0.80;87.30;;;;;;5033793;28;20209;-66
2023/01/28 05:04:24;;;;;;;5.10;4.60;;;-0.70;93.00;;;;;;5033802;28;20187;-68
2023/01/28 05:06:50;;;;;;;6.40;5.80;;;-0.70;94.40;;;;;;5052809;28;20277;-72
2023/01/28 05:09:15;;;;;;;6.37;5.87;;;-0.70;94.20;;;;;;5053900;28;20167;-72
2023/01/28 05:11:41;;;;;;;12.07;6.10;;;-0.70;96.40;;;;;;5034578;28;20437;-72
2023/01/28 05:14:07;;;;;;;6.13;5.40;;;-0.70;97.10;;;;;;5034206;28;20613;-67
2023/01/28 05:16:33;;;;;;;7.38;5.70;;;-0.70;97.70;;;;;;5038427;28;20207;-72
2023/01/28 05:19:00;;;;;;;5.25;4.85;;;-0.60;98.60;;;;;;5053970;28;20699;-66
2023/01/28 05:21:26;;;;;;;6.72;5.10;;;-0.70;98.50;;;;;;5033899;28;20176;-66
2023/01/28 05:23:53;;;;;;;6.50;5.13;;;-0.70;97.70;;;;;;5033700;28;20175;-66
2023/01/28 05:26:19;;;;;;;6.88;5.55;;;-0.70;98.00;;;;;;5050588;28;20202;-66
2023/01/28 05:28:44;;;;;;;6.37;5.77;;;-0.70;97.50;;;;;;5053527;28;20316;-67
2023/01/28 05:31:10;;;;;;;6.93;5.70;;;-0.70;98.50;;;;;;5035710;28;20171;-72
2023/01/28 05:33:36;;;;;;;7.00;5.73;;;-0.70;98.20;;;;;;5037525;28;20252;-67
2023/01/28 05:36:02;;;;;;;6.90;5.50;;;-0.70;99.90;;;;;;5036094;28;20223;-72
2023/01/28 05:38:28;;;;;;;7.78;5.47;;;-0.70;99.50;;;;;;5033483;28;20404;-66
2023/01/28 05:40:53;;;;;;;14.10;7.07;;;-0.80;99.20;;;;;;5046154;28;20531;-66
2023/01/28 05:43:19;;;;;;;6.40;5.90;;;-0.80;99.90;;;;;;5052306;28;20167;-72
2023/01/28 05:45:46;;;;;;;6.10;5.30;;;-0.80;99.60;;;;;;5040872;28;20280;-68
2023/01/28 05:48:12;;;;;;;8.27;6.72;;;-0.90;99.00;;;;;;5032156;28;20202;-66
2023/01/28 05:50:38;;;;;;;7.13;6.22;;;-0.80;99.90;;;;;;5037689;28;20629;-65
2023/01/28 05:53:07;;;;;;;7.23;6.53;;;-0.80;99.90;;;;;;5033288;28;20191;-72
2023/01/28 05:55:33;;;;;;;6.53;5.93;;;-0.80;99.90;;;;;;5040120;28;20966;-66
2023/01/28 05:57:59;;;;;;;7.53;5.67;;;-0.90;99.90;;;;;;5053060;28;20182;-66
2023/01/28 06:00:24;;;;;;;7.97;6.53;;;-0.80;99.90;;;;;;5046007;28;20183;-72
2023/01/28 06:02:51;;;;;;;6.43;5.90;;;-0.90;99.90;;;;;;5033246;28;20637;-65
2023/01/28 06:05:17;;;;;;;7.78;6.55;;;-0.90;99.90;;;;;;5036996;28;20236;-72
2023/01/28 06:07:44;;;;;;;8.02;6.57;;;-0.90;99.90;;;;;;5047358;28;20183;-66
2023/01/28 06:10:10;;;;;;;6.55;6.05;;;-0.90;99.90;;;;;;5044393;28;20187;-72
2023/01/28 06:12:36;;;;;;;8.70;6.30;;;-1.00;99.40;;;;;;5032046;28;20171;-66
2023/01/28 06:15:02;;;;;;;12.23;6.53;;;-1.00;99.50;;;;;;5030999;28;20203;-72
2023/01/28 06:17:28;;;;;;;10.00;6.60;;;-1.00;99.10;;;;;;5045529;28;20166;-65
2023/01/28 06:19:54;;;;;;;9.77;6.40;;;-1.00;99.90;;;;;;5052882;28;20163;-72
2023/01/28 06:22:19;;;;;;;7.13;6.40;;;-1.00;99.90;;;;;;5041740;28;20178;-65
2023/01/28 06:24:45;;;;;;;6.90;6.30;;;-1.10;99.90;;;;;;5040067;28;20238;-72
2023/01/28 06:27:11;;;;;;;11.30;6.33;;;-1.00;99.90;;;;;;5041911;28;20253;-72
2023/01/28 06:29:36;;;;;;;13.73;7.20;;;-1.00;99.90;;;;;;5054665;28;20167;-65
2023/01/28 06:32:02;;;;;;;7.20;6.47;;;-1.00;99.90;;;;;;5049087;28;20278;-71
2023/01/28 06:34:28;;;;;;;6.40;5.90;;;-0.90;99.90;;;;;;5035945;28;20203;-72
2023/01/28 06:36:54;;;;;;;9.83;7.20;;;-0.90;99.90;;;;;;5042501;28;20439;-72
2023/01/28 06:39:21;;;;;;;6.50;5.90;;;-0.90;99.90;;;;;;5055151;28;20183;-66
2023/01/28 06:41:47;;;;;;;7.32;6.60;;;-0.90;99.90;;;;;;5054649;28;20174;-66
2023/01/28 06:44:13;;;;;;;9.00;6.90;;;-0.90;99.90;;;;;;5056344;28;20175;-73
2023/01/28 06:46:38;;;;;;;8.47;7.60;;;-0.90;99.90;;;;;;5055853;28;20186;-66
2023/01/28 06:49:04;;;;;;;9.70;7.53;;;-0.80;99.90;;;;;;5056316;28;20163;-72
2023/01/28 06:51:30;;;;;;;11.33;7.90;;;-0.80;99.90;;;;;;5056645;28;20167;-65
2023/01/28 06:53:56;;;;;;;10.77;7.00;;;-0.80;99.90;;;;;;5056443;28;20680;-65
2023/01/28 06:56:21;;;;;;;10.43;8.43;;;-0.90;99.90;;;;;;5055396;28;20453;-66
2023/01/28 06:58:47;;;;;;;11.50;7.40;;;-0.90;99.90;;;;;;5043668;28;20249;-65
2023/01/28 07:01:13;;;;;;;7.70;6.90;;;-0.90;99.90;;;;;;5055020;28;20773;-64
2023/01/28 07:03:38;;;;;;;13.07;8.40;;;-0.90;99.90;;;;;;5055985;28;20167;-64
2023/01/28 07:06:04;;;;;;;10.68;7.30;;;-0.90;99.90;;;;;;5046013;28;20425;-65
2023/01/28 07:08:30;;;;;;;8.40;7.47;;;-0.80;99.90;;;;;;5036023;28;20190;-73
2023/01/28 07:10:56;;;;;;;11.00;7.43;;;-0.90;99.90;;;;;;5038016;28;20911;-73
2023/01/28 07:13:22;;;;;;;9.60;7.37;;;-0.90;99.90;;;;;;5056052;28;20312;-65
2023/01/28 07:15:48;;;;;;;9.30;8.00;;;-0.90;99.90;;;;;;5053137;28;20214;-72
2023/01/28 07:18:14;;;;;;;8.35;7.07;;;-0.90;99.90;;;;;;5056078;28;20521;-66
2023/01/28 07:20:39;;;;;;;10.27;8.90;;;-0.90;99.90;;;;;;5052102;28;20170;-73
2023/01/28 07:23:05;;;;;;;13.87;9.10;;;-0.90;99.90;;;;;;5046557;28;20644;-73
2023/01/28 07:25:31;;;;;;;12.03;9.30;;;-0.90;99.90;;;;;;5034685;28;20541;-72
2023/01/28 07:27:56;;;;;;;22.00;10.37;;;-0.90;99.90;;;;;;5049670;28;20224;-65
2023/01/28 07:30:23;;;;;;;12.83;9.00;;;-0.90;99.90;;;;;;5053367;28;20543;-71
2023/01/28 07:32:55;;;;;;;11.18;9.07;;;-0.80;99.90;;;;;;5041643;28;20179;-72
2023/01/28 07:35:21;;;;;;;10.00;7.13;;;-0.80;99.90;;;;;;5054457;28;20203;-73
2023/01/28 07:37:59;;;;;;;13.00;9.15;;;-0.70;99.90;;;;;;5055502;28;20171;-66
2023/01/28 07:40:25;;;;;;;10.77;8.68;;;-0.70;99.90;;;;;;5038587;28;20175;-67
2023/01/28 07:42:53;;;;;;;10.73;8.25;;;-0.60;99.90;;;;;;5035293;28;20169;-72
2023/01/28 07:45:18;;;;;;;10.90;8.45;;;-0.60;99.90;;;;;;5034353;28;20201;-73
2023/01/28 07:47:51;;;;;;;12.30;8.70;;;-0.60;99.90;;;;;;5035504;28;20171;-72
2023/01/28 07:50:17;;;;;;;9.05;8.15;;;-0.50;99.90;;;;;;5034605;28;20179;-66
2023/01/28 07:52:44;;;;;;;10.43;7.93;;;-0.50;99.90;;;;;;5035273;28;20685;-72
2023/01/28 07:55:14;;;;;;;12.23;7.90;;;-0.40;99.90;;;;;;5034275;28;20192;-65
2023/01/28 07:57:57;;;;;;;14.20;9.57;;;-0.20;99.90;;;;;;5035542;28;20182;-66
2023/01/28 08:00:24;;;;;;;17.50;8.35;;;-0.20;99.90;;;;;;5034744;28;20160;-67
2023/01/28 08:02:54;;;;;;;12.15;8.95;;;-0.20;99.90;;;;;;5033660;28;20197;-72
2023/01/28 08:05:20;;;;;;;17.23;8.65;;;-0.30;99.90;;;;;;5034112;28;20195;-66
2023/01/28 08:07:47;;;;;;;10.30;8.43;;;-0.40;99.90;;;;;;5035645;28;20176;-72
2023/01/28 08:10:15;;;;;;;9.80;8.57;;;-0.40;99.90;;;;;;5035208;28;20909;-73
2023/01/28 08:12:49;;;;;;;12.38;8.93;;;-0.30;99.90;;;;;;5033543;28;20261;-66
2023/01/28 08:15:15;;;;;;;13.43;9.68;;;-0.20;99.90;;;;;;5036259;28;20310;-73
2023/01/28 08:17:41;;;;;;;12.63;9.33;;;-0.20;99.90;;;;;;5053643;28;20269;-67
2023/01/28 08:20:08;;;;;;;12.37;9.57;;;-0.20;99.90;;;;;;5054885;28;20171;-65
2023/01/28 08:22:34;;;;;;;14.52;9.55;;;-0.20;99.90;;;;;;5054832;28;20174;-71
2023/01/28 08:25:00;;;;;;;10.00;8.37;;;-0.10;99.90;;;;;;5037662;28;20548;-65
2023/01/28 08:27:25;;;;;;;9.60;8.70;;;0.00;99.90;;;;;;5034752;28;20242;-65
2023/01/28 08:29:51;;;;;;;13.70;8.50;;;0.10;99.90;;;;;;5034714;28;20172;-71
2023/01/28 08:32:17;;;;;;;13.63;8.97;;;0.20;99.90;;;;;;5040761;28;20634;-72
2023/01/28 08:34:42;;;;;;;11.67;9.07;;;0.20;99.90;;;;;;5053519;28;20198;-71
2023/01/28 08:37:08;;;;;;;17.70;9.50;;;0.40;99.90;;;;;;5054144;28;20209;-72
2023/01/28 08:39:34;;;;;;;12.70;8.73;;;0.50;99.90;;;;;;5054654;28;20163;-72
2023/01/28 08:41:59;;;;;;;10.40;8.10;;;0.50;99.90;;;;;;5038521;28;20175;-65
2023/01/28 08:44:25;;;;;;;13.20;8.63;;;0.60;99.90;;;;;;5033449;28;20660;-71
2023/01/28 08:46:51;;;;;;;15.23;11.07;;;0.60;99.90;;;;;;5034552;28;20237;-71
2023/01/28 08:49:16;;;;;;;11.87;8.73;;;0.70;99.90;;;;;;5034313;28;20171;-65
2023/01/28 08:51:42;;;;;;;11.23;8.27;;;0.70;99.90;;;;;;5032569;28;20175;-66
2023/01/28 08:54:08;;;;;;;9.60;8.60;;;0.70;99.90;;;;;;5033810;28;20168;-66
2023/01/28 08:56:33;;;;;;;12.70;8.97;;;0.70;99.20;;;;;;5036810;28;20199;-65
2023/01/28 08:58:59;;;;;;;12.50;9.23;;;0.70;99.60;;;;;;5040204;28;20171;-67
2023/01/28 09:01:28;;;;;;;13.47;8.90;;;0.90;99.90;;;;;;5054068;28;20578;-66
2023/01/28 09:03:53;;;;;;;10.95;7.97;;;1.00;99.90;;;;;;5054087;28;20159;-66
2023/01/28 09:06:19;;;;;;;11.70;9.20;;;1.10;99.90;;;;;;5051853;28;20203;-71
2023/01/28 09:08:45;;;;;;;13.07;9.93;;;1.10;99.90;;;;;;5053707;28;20270;-68
2023/01/28 09:11:11;;;;;;;12.13;9.20;;;1.20;99.90;;;;;;5053679;28;20175;-66
2023/01/28 09:13:36;;;;;;;9.33;8.43;;;1.30;99.90;;;;;;5053961;28;20224;-65
2023/01/28 09:16:06;;;;;;;10.77;7.67;;;1.30;97.90;;;;;;5043747;28;20457;-72
2023/01/28 09:18:31;;;;;;;12.33;9.60;;;1.40;97.10;;;;;;5033864;28;20179;-66
2023/01/28 09:20:57;;;;;;;15.70;9.17;;;1.30;94.10;;;;;;5033840;28;20410;-72
2023/01/28 09:23:23;;;;;;;11.27;8.60;;;1.30;90.30;;;;;;5033614;28;20167;-72
2023/01/28 09:25:48;;;;;;;13.53;8.83;;;1.30;90.20;;;;;;5032610;28;20719;-72
2023/01/28 09:28:14;;;;;;;14.33;9.40;;;1.30;93.40;;;;;;5033734;28;20213;-72
2023/01/28 09:30:40;;;;;;;11.23;8.97;;;1.30;90.50;;;;;;5033708;28;20172;-72
2023/01/28 09:33:06;;;;;;;12.83;9.40;;;1.30;88.70;;;;;;5033576;28;20545;-69
2023/01/28 09:35:33;;;;;;;16.00;10.70;;;1.30;88.80;;;;;;5031140;28;20260;-71
2023/01/28 09:37:59;;;;;;;18.75;11.10;;;1.30;88.80;;;;;;5033489;28;20171;-66
2023/01/28 09:40:41;;;;;;;14.67;10.27;;;1.30;88.80;;;;;;5033375;28;20640;-66
2023/01/28 09:43:33;;;;;;;19.13;12.25;;;1.30;92.80;;;;;;5033159;28;20171;-70
2023/01/28 09:46:03;;;;;;;16.83;11.93;;;1.40;96.30;;;;;;5032536;28;20222;-66
2023/01/28 09:48:37;;;;;;;20.52;11.70;;;1.40;97.50;;;;;;5033244;28;20218;-72
2023/01/28 09:51:09;;;;;;;18.05;11.00;;;1.40;95.00;;;;;;5033219;28;20199;-71
2023/01/28 09:53:42;;;;;;;16.05;12.30;;;1.30;93.40;;;;;;5033116;28;20198;-66
2023/01/28 09:56:15;;;;;;;14.68;10.88;;;1.20;93.50;;;;;;5032368;28;20200;-72
2023/01/28 09:58:42;;;;;;;13.65;10.52;;;1.10;93.90;;;;;;5032712;28;20162;-72
2023/01/28 10:01:43;;;;;;;21.05;12.38;;;1.20;99.80;;;;;;5033056;28;20620;-66
2023/01/28 10:04:34;;;;;;;19.60;10.15;;;1.30;99.90;;;;;;5032787;28;20229;-72
2023/01/28 10:07:18;;;;;;;19.03;11.63;;;1.40;99.90;;;;;;5033208;28;20163;-65
2023/01/28 10:09:59;;;;;;;22.23;12.57;;;1.40;99.90;;;;;;5032833;28;20481;-66
2023/01/28 10:13:01;;;;;;;18.83;10.98;;;1.40;99.90;;;;;;5032892;28;20167;-68
2023/01/28 10:15:40;;;;;;;14.60;10.30;;;1.40;99.90;;;;;;5032164;28;20199;-72
2023/01/28 10:18:11;;;;;;;15.93;11.43;;;1.50;99.90;;;;;;5032664;28;20410;-66
2023/01/28 10:20:43;;;;;;;24.43;13.63;;;1.50;99.90;;;;;;5032944;28;20171;-72
2023/01/28 10:23:30;;;;;;;18.50;12.90;;;1.70;99.90;;;;;;5031938;28;20403;-71
2023/01/28 10:26:00;;;;;;;19.83;12.38;;;1.70;99.90;;;;;;5032092;28;20465;-72
2023/01/28 10:28:29;;;;;;;19.23;12.83;;;1.70;99.90;;;;;;5032881;28;20178;-67
2023/01/28 10:30:55;;;;;;;18.45;11.23;;;1.60;99.90;;;;;;5033032;28;20472;-66
2023/01/28 10:33:26;;;;;;;20.20;12.90;;;1.60;98.80;;;;;;5032925;28;20529;-71
2023/01/28 10:35:54;;;;;;;18.92;11.60;;;1.60;99.90;;;;;;5031890;28;20458;-72
2023/01/28 10:38:22;;;;;;;22.02;12.60;;;1.60;99.90;;;;;;5032592;28;20174;-71
2023/01/28 10:40:48;;;;;;;23.05;12.95;;;1.50;99.90;;;;;;5032818;28;20234;-72
2023/01/28 10:43:23;;;;;;;21.60;12.23;;;1.60;99.90;;;;;;5032792;28;20188;-71
2023/01/28 10:46:11;;;;;;;20.75;12.70;;;1.60;99.90;;;;;;5030958;28;20191;-67
2023/01/28 10:49:13;;;;;;;20.60;13.50;;;1.70;99.90;;;;;;5032738;28;20259;-72
2023/01/28 10:51:41;;;;;;;16.33;11.83;;;1.90;99.90;;;;;;5032843;28;20305;-66
2023/01/28 10:54:27;;;;;;;22.48;11.88;;;1.90;99.90;;;;;;5032274;28;20414;-71
2023/01/28 10:57:06;;;;;;;22.73;11.43;;;1.80;99.90;;;;;;5032350;28;20182;-66
2023/01/28 10:59:35;;;;;;;19.67;13.15;;;1.90;99.90;;;;;;5032776;28;20171;-71
2023/01/28 11:02:21;;;;;;;22.00;13.90;;;1.90;99.90;;;;;;5032285;28;20231;-66
2023/01/28 11:04:46;;;;;;;20.25;13.05;;;1.90;99.90;;;;;;5031705;28;20984;-66
2023/01/28 11:07:19;;;;;;;21.93;14.27;;;1.70;99.90;;;;;;5032466;28;20267;-72
2023/01/28 11:09:48;;;;;;;19.40;14.17;;;1.90;99.90;;;;;;5031248;28;20184;-71
2023/01/28 11:12:26;;;;;;;19.30;13.47;;;2.00;99.90;;;;;;5032388;28;20402;-66
2023/01/28 11:15:02;;;;;;;22.03;12.97;;;2.20;99.90;;;;;;5032225;28;20491;-71
2023/01/28 11:17:31;;;;;;;26.47;14.77;;;2.30;99.90;;;;;;5036221;28;20444;-66
2023/01/28 11:20:00;;;;;;;19.17;12.80;;;2.40;99.90;;;;;;5035131;28;20513;-67
2023/01/28 11:22:38;;;;;;;27.57;12.70;;;2.30;99.90;;;;;;5036014;28;20457;-68
2023/01/28 11:25:15;;;;;;;20.00;12.03;;;2.40;99.90;;;;;;5035383;28;20487;-66
2023/01/28 11:27:50;;;;;;;18.90;11.70;;;2.30;97.10;;;;;;5036114;28;20416;-71
2023/01/28 11:30:39;;;;;;;19.70;12.30;;;2.20;96.10;;;;;;5035950;28;20405;-67
2023/01/28 11:33:28;;;;;;;24.60;14.80;;;2.30;99.00;;;;;;5035726;28;20433;-66
2023/01/28 11:35:56;;;;;;;17.50;11.37;;;2.30;98.50;;;;;;5034996;28;20473;-65
2023/01/28 11:38:24;;;;;;;21.57;13.60;;;2.30;98.30;;;;;;5035852;28;20732;-65
2023/01/28 11:40:55;;;;;;;15.27;11.43;;;2.20;96.30;;;;;;5035920;28;20410;-70
2023/01/28 11:43:24;;;;;;;17.63;11.43;;;2.30;99.90;;;;;;5035752;28;20942;-71
2023/01/28 11:46:11;;;;;;;17.07;12.27;;;2.30;99.90;;;;;;5034935;28;20456;-71
2023/01/28 11:49:01;;;;;;;24.30;12.93;;;2.30;99.90;;;;;;5034300;28;20422;-72
2023/01/28 11:51:46;;;;;;;19.93;12.80;;;2.50;99.90;;;;;;5035366;28;20876;-66
2023/01/28 11:54:17;;;;;;;20.17;13.87;;;2.50;99.90;;;;;;5034313;28;20498;-72
2023/01/28 11:56:57;;;;;;;19.53;11.77;;;2.50;99.90;;;;;;5035394;28;20817;-66
2023/01/28 12:00:00;;;;;;;22.33;12.50;;;2.60;99.90;;;;;;5034233;28;20680;-66
2023/01/28 12:02:47;;;;;;;17.50;11.80;;;2.60;98.20;;;;;;5034437;28;20410;-68
2023/01/28 12:05:33;;;;;;;18.37;12.43;;;2.50;97.70;;;;;;5034620;28;20838;-66
2023/01/28 12:08:11;;;;;;;19.93;12.73;;;2.60;98.70;;;;;;5035297;28;20410;-66
2023/01/28 12:10:51;;;;;;;20.83;13.77;;;2.80;99.90;;;;;;5034776;28;20406;-72
2023/01/28 12:13:27;;;;;;;23.27;12.17;;;2.80;98.80;;;;;;5035191;28;20405;-72
2023/01/28 12:16:21;;;;;;;19.87;13.13;;;2.90;99.50;;;;;;5034301;28;20470;-66
2023/01/28 12:19:08;;;;;;;19.00;12.43;;;2.80;96.30;;;;;;5034973;28;20410;-66
2023/01/28 12:22:01;;;;;;;19.43;12.93;;;2.80;97.90;;;;;;5035098;28;20493;-72
2023/01/28 12:24:46;;;;;;;19.13;11.57;;;2.90;97.70;;;;;;5034234;28;20434;-73
2023/01/28 12:27:53;;;;;;;15.07;10.63;;;2.80;92.40;;;;;;5034192;28;20463;-68
2023/01/28 12:30:56;;;;;;;17.47;13.53;;;2.70;90.00;;;;;;5033558;28;20771;-66
2023/01/28 12:33:45;;;;;;;19.63;13.10;;;2.60;91.00;;;;;;5034830;28;20766;-68
2023/01/28 12:36:19;;;;;;;71.93;32.17;;;2.60;96.00;;;;;;5033985;28;20831;-72
2023/01/28 12:38:54;;;;;;;22.70;14.87;;;2.60;97.50;;;;;;5034615;28;20410;-72
2023/01/28 12:41:24;;;;;;;20.67;16.43;;;2.60;98.90;;;;;;5034606;28;20401;-66
2023/01/28 12:44:18;;;;;;;19.20;13.03;;;2.70;99.90;;;;;;5034635;28;20430;-73
2023/01/28 12:46:52;;;;;;;19.07;12.07;;;2.80;99.90;;;;;;5034574;28;20448;-66
2023/01/28 12:49:33;;;;;;;22.37;13.57;;;2.80;99.90;;;;;;5034264;28;20398;-72
2023/01/28 12:52:08;;;;;;;18.37;11.40;;;2.80;99.90;;;;;;5034463;28;20436;-65
2023/01/28 12:55:11;;;;;;;17.40;11.20;;;2.90;99.90;;;;;;5033547;28;20475;-72
2023/01/28 12:57:37;;;;;;;19.73;12.00;;;2.90;99.90;;;;;;5034498;28;20402;-73
2023/01/28 13:00:26;;;;;;;14.10;11.00;;;2.90;99.00;;;;;;5034244;28;20460;-72
2023/01/28 13:03:09;;;;;;;14.30;10.57;;;2.80;95.40;;;;;;5034319;28;20448;-66
2023/01/28 13:05:42;;;;;;;18.23;12.40;;;2.70;97.80;;;;;;5032393;28;20453;-66
2023/01/28 13:08:21;;;;;;;16.77;12.70;;;2.80;98.40;;;;;;5033901;28;20468;-72
2023/01/28 13:10:47;;;;;;;19.57;11.50;;;2.80;99.80;;;;;;5033003;28;20425;-72
2023/01/28 13:13:29;;;;;;;17.73;11.73;;;2.80;97.30;;;;;;5033849;28;20418;-71
2023/01/28 13:15:55;;;;;;;14.80;10.73;;;2.80;99.50;;;;;;5032979;28;20464;-66
2023/01/28 13:18:38;;;;;;;15.53;11.53;;;2.60;95.10;;;;;;5033936;28;20403;-67
2023/01/28 13:21:05;;;;;;;19.90;11.10;;;2.60;99.70;;;;;;5033850;28;20402;-67
2023/01/28 13:23:48;;;;;;;15.90;11.00;;;2.60;98.00;;;;;;5033858;28;20486;-70
2023/01/28 13:26:17;;;;;;;15.47;9.73;;;2.50;99.90;;;;;;5032879;28;20492;-69
2023/01/28 13:28:43;;;;;;;15.83;11.07;;;2.50;99.90;;;;;;5032770;28;20440;-66
2023/01/28 13:31:16;;;;;;;19.23;11.40;;;2.50;99.90;;;;;;5033638;28;20909;-66
2023/01/28 13:33:46;;;;;;;16.60;11.67;;;2.50;99.90;;;;;;5033677;28;20402;-68